createdAt,value
2023-05-03T00:03:37.146Z,8.10
2023-05-03T00:07:39.665Z,8.00
2023-05-03T00:11:40.869Z,7.90
2023-05-03T00:15:41.990Z,7.90
2023-05-03T00:19:43.150Z,7.50
2023-05-03T00:23:44.125Z,7.80
2023-05-03T00:27:45.136Z,7.70
2023-05-03T00:31:46.286Z,8.10
2023-05-03T00:35:47.396Z,7.80
2023-05-03T00:39:48.823Z,7.70
2023-05-03T00:43:50.149Z,7.50
2023-05-03T00:47:51.278Z,7.40
2023-05-03T00:51:53.978Z,7.30
2023-05-03T00:55:56.945Z,7.30
2023-05-03T01:00:01.564Z,7.20
2023-05-03T01:04:05.869Z,7.40
2023-05-03T01:08:19.517Z,7.40
2023-05-03T01:12:39.320Z,7.30
2023-05-03T01:16:53.796Z,6.70
2023-05-03T01:20:56.958Z,7.20
2023-05-03T01:25:05.435Z,7.10
2023-05-03T01:29:06.411Z,7.00
2023-05-03T01:33:19.934Z,7.00
2023-05-03T01:37:21.257Z,6.80
2023-05-03T01:41:24.175Z,6.70
2023-05-03T01:45:26.035Z,6.90
2023-05-03T01:49:26.976Z,6.60
2023-05-03T01:53:28.052Z,6.80
2023-05-03T01:57:29.175Z,7.00
2023-05-03T02:01:30.213Z,7.00
2023-05-03T02:05:31.132Z,6.80
2023-05-03T02:09:32.629Z,6.70
2023-05-03T02:13:34.602Z,6.60
2023-05-03T02:17:36.917Z,6.60
2023-05-03T02:21:37.925Z,6.50
2023-05-03T02:25:39.912Z,6.40
2023-05-03T02:29:40.919Z,6.30
2023-05-03T02:33:41.835Z,6.20
2023-05-03T02:37:43.146Z,6.20
2023-05-03T02:41:44.075Z,6.10
2023-05-03T02:45:45.275Z,6.20
2023-05-03T02:49:47.794Z,6.10
2023-05-03T02:53:48.728Z,6.10
2023-05-03T02:57:50.224Z,5.30
2023-05-03T03:01:51.475Z,5.60
2023-05-03T03:05:52.556Z,6.10
2023-05-03T03:09:53.634Z,5.60
2023-05-03T03:13:54.988Z,5.70
2023-05-03T03:17:57.713Z,6.00
2023-05-03T03:21:59.033Z,6.10
2023-05-03T03:26:00.492Z,6.10
2023-05-03T03:30:01.840Z,5.80
2023-05-03T03:34:03.055Z,5.90
2023-05-03T03:38:04.428Z,5.80
2023-05-03T03:42:06.775Z,5.80
2023-05-03T03:46:07.748Z,5.50
2023-05-03T03:50:09.297Z,5.70
2023-05-03T03:54:10.286Z,5.70
2023-05-03T03:58:11.384Z,5.60
2023-05-03T04:02:12.588Z,5.50
2023-05-03T04:06:13.713Z,5.60
2023-05-03T04:10:14.940Z,5.60
2023-05-03T04:14:15.888Z,5.70
2023-05-03T04:18:16.876Z,5.80
2023-05-03T04:22:17.809Z,5.80
2023-05-03T04:26:30.547Z,5.70
2023-05-03T04:30:24.187Z,6.00
2023-05-03T04:34:25.403Z,5.90
2023-05-03T04:38:26.333Z,6.00
2023-05-03T04:42:27.495Z,6.20
2023-05-03T04:46:28.524Z,6.20
2023-05-03T04:50:29.557Z,6.30
2023-05-03T04:54:30.669Z,6.50
2023-05-03T04:58:31.822Z,6.20
2023-05-03T05:02:32.961Z,7.00
2023-05-03T05:06:33.958Z,7.10
2023-05-03T05:10:39.759Z,7.40
2023-05-03T05:14:40.890Z,7.70
2023-05-03T05:18:41.842Z,8.00
2023-05-03T05:22:42.988Z,8.00
2023-05-03T05:26:44.555Z,7.70
2023-05-03T05:30:45.682Z,8.20
2023-05-03T05:34:48.774Z,8.60
2023-05-03T05:38:50.109Z,8.80
2023-05-03T05:42:51.293Z,9.00
2023-05-03T05:46:52.467Z,9.60
2023-05-03T05:50:53.449Z,9.90
2023-05-03T05:54:54.767Z,8.00
2023-05-03T05:58:57.130Z,8.20
2023-05-03T06:02:58.145Z,7.90
2023-05-03T06:06:59.342Z,6.70
2023-05-03T06:11:00.577Z,6.90
2023-05-03T06:15:03.267Z,6.50
2023-05-03T06:19:04.663Z,6.30
2023-05-03T06:23:05.656Z,6.50
2023-05-03T06:27:07.051Z,6.90
2023-05-03T06:31:08.224Z,6.70
2023-05-03T06:35:09.489Z,6.90
2023-05-03T06:39:10.662Z,7.60
2023-05-03T06:43:11.895Z,7.60
2023-05-03T06:47:12.880Z,7.70
2023-05-03T06:51:14.074Z,7.90
2023-05-03T06:55:15.430Z,8.10
2023-05-03T06:59:16.731Z,7.60
2023-05-03T07:03:17.837Z,7.40
2023-05-03T07:07:19.002Z,7.90
2023-05-03T07:11:24.057Z,8.30
2023-05-03T07:15:25.172Z,8.20
2023-05-03T07:19:26.203Z,8.60
2023-05-03T07:23:27.321Z,8.70
2023-05-03T07:27:28.308Z,8.60
2023-05-03T07:31:29.600Z,9.10
2023-05-03T07:35:32.543Z,9.20
2023-05-03T07:39:33.497Z,9.20
2023-05-03T07:43:34.589Z,8.70
2023-05-03T07:47:37.977Z,9.00
2023-05-03T07:51:39.241Z,9.90
2023-05-03T07:55:40.994Z,9.50
2023-05-03T07:59:42.894Z,10.10
2023-05-03T08:03:44.087Z,10.60
2023-05-03T08:07:45.362Z,10.80
2023-05-03T08:11:46.427Z,9.50
2023-05-03T08:15:48.098Z,9.90
2023-05-03T08:19:49.932Z,9.90
2023-05-03T08:23:51.158Z,10.10
2023-05-03T08:27:52.264Z,9.90
2023-05-03T08:31:53.727Z,11.30
2023-05-03T08:35:55.055Z,10.50
2023-05-03T08:39:56.058Z,11.80
2023-05-03T08:43:58.352Z,10.80
2023-05-03T08:48:01.621Z,11.30
2023-05-03T08:52:05.788Z,10.70
2023-05-03T08:56:09.802Z,11.30
2023-05-03T09:00:12.143Z,11.70
2023-05-03T09:04:13.408Z,12.00
2023-05-03T09:08:16.265Z,11.90
2023-05-03T09:12:37.054Z,11.90
2023-05-03T09:16:40.413Z,13.60
2023-05-03T09:20:42.414Z,14.00
2023-05-03T09:24:52.528Z,13.30
2023-05-03T09:28:53.935Z,12.30
2023-05-03T09:32:55.000Z,12.00
2023-05-03T09:36:56.257Z,12.90
2023-05-03T09:40:57.978Z,12.60
2023-05-03T09:44:58.968Z,12.40
2023-05-03T09:49:00.696Z,11.40
2023-05-03T09:53:03.470Z,12.60
2023-05-03T09:57:05.824Z,11.70
2023-05-03T10:01:09.240Z,11.50
2023-05-03T10:05:12.076Z,11.90
2023-05-03T10:09:20.091Z,12.20
2023-05-03T10:13:24.599Z,13.30
2023-05-03T10:17:46.548Z,13.40
2023-05-03T10:21:36.858Z,14.00
2023-05-03T10:25:39.749Z,14.20
2023-05-03T10:29:47.959Z,13.00
2023-05-03T10:33:49.012Z,12.70
2023-05-03T10:37:51.311Z,12.90
2023-05-03T10:41:59.225Z,12.50
2023-05-03T10:46:02.903Z,14.20
2023-05-03T10:50:19.700Z,13.30
2023-05-03T10:54:20.943Z,14.70
2023-05-03T10:58:21.880Z,13.60
2023-05-03T11:02:29.860Z,13.40
2023-05-03T11:06:32.920Z,13.60
2023-05-03T11:10:34.034Z,13.20
2023-05-03T11:14:35.168Z,13.70
2023-05-03T11:18:36.218Z,14.00
2023-05-03T11:22:37.415Z,14.30
2023-05-03T11:26:38.770Z,14.10
2023-05-03T11:30:39.722Z,15.10
2023-05-03T11:34:41.008Z,13.70
2023-05-03T11:38:41.950Z,14.00
2023-05-03T11:42:56.067Z,14.40
2023-05-03T11:46:57.524Z,14.80
2023-05-03T11:50:58.701Z,14.40
2023-05-03T11:55:00.991Z,14.40
2023-05-03T11:59:03.070Z,13.90
2023-05-03T12:03:04.444Z,14.60
2023-05-03T12:07:07.538Z,14.90
2023-05-03T12:11:10.128Z,15.80
2023-05-03T12:15:13.190Z,15.40
2023-05-03T12:19:32.275Z,15.30
2023-05-03T12:23:34.128Z,16.10
2023-05-03T12:27:35.048Z,16.00
2023-05-03T12:31:39.129Z,16.80
2023-05-03T12:35:41.138Z,15.60
2023-05-03T12:39:45.978Z,17.00
2023-05-03T12:43:45.709Z,16.20
2023-05-03T12:47:50.159Z,16.90
2023-05-03T12:52:06.583Z,17.30
2023-05-03T12:55:55.468Z,16.80
2023-05-03T13:00:02.030Z,16.30
2023-05-03T13:04:24.034Z,16.90
2023-05-03T13:08:08.090Z,17.50
2023-05-03T13:12:06.005Z,17.80
2023-05-03T13:16:08.310Z,17.70
2023-05-03T13:20:10.165Z,16.60
2023-05-03T13:24:11.119Z,17.80
2023-05-03T13:28:12.211Z,17.10
2023-05-03T13:32:13.380Z,17.00
2023-05-03T13:36:14.601Z,17.50
2023-05-03T13:40:15.831Z,18.40
2023-05-03T13:44:17.476Z,16.30
2023-05-03T13:48:19.469Z,17.40
2023-05-03T13:52:20.820Z,17.10
2023-05-03T13:56:21.737Z,17.30
2023-05-03T14:00:22.929Z,17.50
2023-05-03T14:04:24.799Z,17.90
2023-05-03T14:08:25.984Z,17.50
2023-05-03T14:12:27.687Z,17.70
2023-05-03T14:16:40.272Z,17.80
2023-05-03T14:20:33.889Z,19.00
2023-05-03T14:24:35.887Z,18.20
2023-05-03T14:28:37.005Z,17.10
2023-05-03T14:32:38.174Z,17.10
2023-05-03T14:36:41.287Z,17.60
2023-05-03T14:40:42.532Z,17.70
2023-05-03T14:44:43.978Z,21.20
2023-05-03T14:48:44.976Z,18.90
2023-05-03T14:52:46.124Z,19.50
2023-05-03T14:56:47.369Z,20.00
2023-05-03T15:00:48.577Z,21.00
2023-05-03T15:04:49.783Z,21.20
2023-05-03T15:08:51.671Z,20.30
2023-05-03T15:12:52.830Z,20.10
2023-05-03T15:16:53.856Z,19.10
2023-05-03T15:20:55.523Z,19.30
2023-05-03T15:24:56.629Z,19.90
2023-05-03T15:28:57.773Z,18.20
2023-05-03T15:32:58.947Z,18.60
2023-05-03T15:37:00.394Z,17.30
2023-05-03T15:41:01.680Z,18.20
2023-05-03T15:45:05.329Z,18.00
2023-05-03T15:49:06.297Z,17.60
2023-05-03T15:53:07.429Z,17.90
2023-05-03T15:57:08.652Z,17.90
2023-05-03T16:01:10.060Z,17.50
2023-05-03T16:05:11.180Z,17.50
2023-05-03T16:09:12.417Z,18.40
2023-05-03T16:13:13.725Z,17.60
2023-05-03T16:17:14.878Z,18.00
2023-05-03T16:21:16.321Z,17.40
2023-05-03T16:25:18.016Z,17.30
2023-05-03T16:29:19.445Z,17.80
2023-05-03T16:33:20.421Z,17.10
2023-05-03T16:37:21.585Z,17.50
2023-05-03T16:41:23.565Z,17.70
2023-05-03T16:45:24.691Z,17.40
2023-05-03T16:49:26.196Z,17.40
2023-05-03T16:53:27.447Z,17.00
2023-05-03T16:57:28.906Z,16.80
2023-05-03T17:01:30.048Z,16.70
2023-05-03T17:05:33.294Z,16.90
2023-05-03T17:09:34.651Z,16.60
2023-05-03T17:13:36.102Z,16.90
2023-05-03T17:17:37.132Z,17.00
2023-05-03T17:21:38.368Z,16.80
2023-05-03T17:25:39.713Z,16.60
2023-05-03T17:29:40.769Z,16.30
2023-05-03T17:33:41.970Z,16.10
2023-05-03T17:37:44.293Z,16.00
2023-05-03T17:41:45.519Z,16.30
2023-05-03T17:45:49.622Z,16.20
2023-05-03T17:49:50.892Z,16.20
2023-05-03T17:53:52.193Z,16.20
2023-05-03T17:57:53.438Z,16.00
2023-05-03T18:01:54.542Z,15.70
2023-05-03T18:05:55.892Z,15.60
2023-05-03T18:09:58.909Z,15.10
2023-05-03T18:14:00.434Z,15.00
2023-05-03T18:18:02.747Z,14.90
2023-05-03T18:22:05.168Z,15.00
2023-05-03T18:26:07.800Z,15.40
2023-05-03T18:30:09.902Z,15.10
2023-05-03T18:34:11.545Z,14.70
2023-05-03T18:38:12.660Z,15.80
2023-05-03T18:42:14.824Z,15.50
2023-05-03T18:46:18.167Z,15.10
2023-05-03T18:50:19.418Z,15.10
2023-05-03T18:54:20.477Z,15.30
2023-05-03T18:58:21.549Z,15.40
2023-05-03T19:02:22.671Z,15.40
2023-05-03T19:06:23.742Z,14.50
2023-05-03T19:10:24.812Z,14.10
2023-05-03T19:14:25.924Z,13.90
2023-05-03T19:18:26.881Z,13.80
2023-05-03T19:22:27.866Z,14.80
2023-05-03T19:26:29.053Z,16.00
2023-05-03T19:30:30.164Z,15.50
2023-05-03T19:34:33.159Z,15.90
2023-05-03T19:38:36.853Z,15.80
2023-05-03T19:42:37.814Z,15.80
2023-05-03T19:46:38.905Z,15.60
2023-05-03T19:50:40.010Z,15.50
2023-05-03T19:54:41.007Z,15.50
2023-05-03T19:58:42.137Z,15.40
2023-05-03T20:02:43.192Z,15.30
2023-05-03T20:06:44.416Z,15.00
2023-05-03T20:10:46.606Z,14.70
2023-05-03T20:14:47.727Z,14.60
2023-05-03T20:18:48.761Z,14.90
2023-05-03T20:22:49.916Z,14.80
2023-05-03T20:26:51.824Z,14.40
2023-05-03T20:30:52.860Z,14.50
2023-05-03T20:34:53.808Z,14.30
2023-05-03T20:38:55.633Z,14.10
2023-05-03T20:42:56.939Z,14.00
2023-05-03T20:46:58.069Z,13.80
2023-05-03T20:51:00.189Z,13.70
2023-05-03T20:55:01.096Z,13.70
2023-05-03T20:59:02.984Z,13.50
2023-05-03T21:03:04.105Z,13.40
2023-05-03T21:07:05.161Z,12.80
2023-05-03T21:11:06.239Z,12.50
2023-05-03T21:15:08.189Z,13.00
2023-05-03T21:19:09.797Z,12.90
2023-05-03T21:23:10.936Z,13.40
2023-05-03T21:27:11.932Z,13.30
2023-05-03T21:31:12.889Z,13.10
2023-05-03T21:35:13.866Z,12.90
2023-05-03T21:39:15.158Z,12.60
2023-05-03T21:43:16.517Z,12.40
2023-05-03T21:47:18.138Z,12.40
2023-05-03T21:51:21.825Z,12.40
2023-05-03T21:55:22.792Z,12.30
2023-05-03T21:59:23.995Z,12.10
2023-05-03T22:03:25.084Z,12.00
2023-05-03T22:07:26.470Z,11.70
2023-05-03T22:11:27.678Z,12.10
2023-05-03T22:15:31.016Z,12.10
2023-05-03T22:19:37.586Z,11.90
2023-05-03T22:23:38.586Z,11.70
2023-05-03T22:27:39.796Z,11.50
2023-05-03T22:31:40.979Z,11.40
2023-05-03T22:35:41.932Z,11.20
2023-05-03T22:39:43.090Z,11.20
2023-05-03T22:43:44.128Z,11.10
2023-05-03T22:47:45.184Z,10.80
2023-05-03T22:51:46.258Z,10.70
2023-05-03T22:56:03.581Z,11.10
2023-05-03T23:00:07.518Z,11.10
2023-05-03T23:04:08.686Z,11.00
2023-05-03T23:08:10.411Z,10.80
2023-05-03T23:12:11.580Z,10.80
2023-05-03T23:16:12.800Z,10.60
2023-05-03T23:20:14.622Z,9.80
2023-05-03T23:24:15.788Z,10.30
2023-05-03T23:28:17.093Z,10.40
2023-05-03T23:32:18.937Z,10.60
2023-05-03T23:36:20.277Z,10.20
2023-05-03T23:40:21.389Z,10.70
2023-05-03T23:44:22.502Z,10.30
2023-05-03T23:48:23.782Z,9.80
2023-05-03T23:52:24.869Z,9.80
2023-05-03T23:56:26.055Z,9.30
